Time;durP1;ratioP1;P1;durP2;ratioP2;P2;SDS_P1;SDS_P2;PMS_P1;PMS_P2;Temp;Humidity;BMP_temperature;BMP_pressure;BME280_temperature;BME280_humidity;BME280_pressure;Samples;Min_cycle;Max_cycle;Signal;HPM_P1;HPM_P2
2021/12/10 00:02:22;;;;;;;;;;;;;;;-1.55;43.07;91381.28;6368931;22;19948;-95
2021/12/10 00:05:03;;;;;;;;;;;;;;;-1.65;42.38;91392.19;6336687;22;19910;-95
2021/12/10 00:07:55;;;;;;;;;;;;;;;;;;;;;
2021/12/10 00:11:02;;;;;;;;;;;;;;;-1.90;45.75;91383.16;6350134;22;19992;-94
2021/12/10 00:16:40;;;;;;;;;;;;;;;;;;;;;
2021/12/10 00:22:08;;;;;;;;;;;;;;;-2.42;47.30;91387.81;6344800;22;19941;-94
2021/12/10 00:25:12;;;;;;;;;;;;;;;-2.53;47.63;91386.88;6346806;22;19985;-95
2021/12/10 00:28:00;;;;;;;;;;;;;;;-2.64;48.11;91380.06;6343885;22;19917;-95
2021/12/10 00:31:02;;;;;;;;;;;;;;;-2.68;48.02;91368.72;6369199;22;19910;-95
2021/12/10 00:37:08;;;;;;;;;;;;;;;-2.76;47.81;91373.22;6345216;22;19914;-95
2021/12/10 00:39:45;;;;;;;;;;;;;;;-2.77;47.75;91361.44;6318382;22;20325;-94
2021/12/10 00:42:21;;;;;;;;;;;;;;;-2.78;48.73;91359.88;6345632;22;19925;-95
2021/12/10 00:45:06;;;;;;;;;;;;;;;-2.79;48.38;91362.66;6327449;22;20005;-95
2021/12/10 00:48:10;;;;;;;;;;;;;;;-2.81;49.93;91368.03;6322158;22;20358;-96
2021/12/10 00:53:47;;;;;;;;;;;;;;;-2.99;49.61;91370.81;6335693;22;19918;-94
2021/12/10 00:56:33;;;;;;;;;;;;;;;-3.05;48.54;91364.03;6347286;22;19910;-95
2021/12/10 00:59:35;;;;;;;;;;;;;;;-3.09;49.41;91365.50;6347376;22;20301;-95
2021/12/10 01:02:26;;;;;;;;;;;;;;;-3.15;49.94;91362.88;6344729;22;19910;-96
2021/12/10 01:05:08;;;;;;;;;;;;;;;-3.18;50.04;91358.19;6345379;22;19910;-94
2021/12/10 01:07:57;;;;;;;;;;;;;;;;;;;;;
2021/12/10 01:11:07;;;;;;;;;;;;;;;-3.19;49.14;91350.75;6371788;22;19955;-95
2021/12/10 01:13:50;;;;;;;;;;;;;;;-3.14;47.97;91349.03;6347277;22;19994;-95
2021/12/10 01:26:21;;;;;;;;;;;;;;;-3.17;50.76;91344.41;6371735;22;19993;-95
2021/12/10 01:29:08;;;;;;;;;;;;;;;-3.11;48.92;91340.13;6339081;22;19913;-96
2021/12/10 01:31:58;;;;;;;;;;;;;;;-3.07;48.72;91335.31;6348355;22;19910;-95
2021/12/10 01:40:39;;;;;;;;;;;;;;;-2.96;48.42;91342.16;6336636;22;19914;-96
2021/12/10 01:46:39;;;;;;;;;;;;;;;-2.98;49.85;91336.50;6344731;22;19963;-96
2021/12/10 01:49:38;;;;;;;;;;;;;;;-3.04;50.23;91332.28;6343482;22;19950;-94
2021/12/10 01:52:36;;;;;;;;;;;;;;;-3.07;51.00;91327.66;6320618;22;19929;-95
2021/12/10 01:55:19;;;;;;;;;;;;;;;;;;;;;
2021/12/10 01:58:35;;;;;;;;;;;;;;;;;;;;;
2021/12/10 02:01:35;;;;;;;;;;;;;;;-2.92;47.23;91309.97;6346680;22;19910;-94
2021/12/10 02:04:11;;;;;;;;;;;;;;;-2.91;48.87;91308.19;6341015;22;19914;-94
2021/12/10 02:10:29;;;;;;;;;;;;;;;-2.82;47.12;91306.78;6340485;22;19917;-95
2021/12/10 02:13:38;;;;;;;;;;;;;;;;;;;;;
2021/12/10 02:16:46;;;;;;;;;;;;;;;-2.88;48.41;91298.25;6369530;22;19917;-96
2021/12/10 02:19:38;;;;;;;;;;;;;;;;;;;;;
2021/12/10 02:25:39;;;;;;;;;;;;;;;-2.86;48.28;91293.69;6346508;22;19988;-95
2021/12/10 02:28:14;;;;;;;;;;;;;;;-2.84;49.50;91289.06;6299024;22;20011;-95
2021/12/10 02:30:54;;;;;;;;;;;;;;;-2.83;49.68;91285.50;6347817;22;19933;-95
2021/12/10 02:33:54;;;;;;;;;;;;;;;-2.86;50.62;91278.31;6347997;22;19910;-95
2021/12/10 02:36:42;;;;;;;;;;;;;;;;;;;;;
2021/12/10 02:39:37;;;;;;;;;;;;;;;;;;;;;
2021/12/10 02:42:11;;;;;;;;;;;;;;;-2.91;50.48;91270.53;6346181;22;19946;-94
2021/12/10 02:44:45;;;;;;;;;;;;;;;-2.92;49.85;91258.75;6346684;22;19988;-95
2021/12/10 02:47:25;;;;;;;;;;;;;;;;;;;;;
2021/12/10 02:50:12;;;;;;;;;;;;;;;;;;;;;
2021/12/10 02:52:59;;;;;;;;;;;;;;;-2.89;46.64;91239.56;6345107;22;19921;-95
2021/12/10 02:55:35;;;;;;;;;;;;;;;-2.82;46.73;91229.94;6345430;22;19932;-95
2021/12/10 02:58:27;;;;;;;;;;;;;;;-2.77;47.16;91224.88;6349322;22;19985;-95
2021/12/10 03:01:36;;;;;;;;;;;;;;;-2.77;49.28;91225.66;6323829;22;19915;-94
2021/12/10 03:04:48;;;;;;;;;;;;;;;-2.85;50.85;91220.16;6314394;22;19932;-94
2021/12/10 03:07:34;;;;;;;;;;;;;;;-2.91;50.89;91228.78;6354291;22;19962;-95
2021/12/10 03:10:19;;;;;;;;;;;;;;;-2.92;51.64;91220.34;6358050;22;19910;-94
2021/12/10 03:13:15;;;;;;;;;;;;;;;-2.96;51.36;91224.38;6352476;22;20510;-95
2021/12/10 03:16:10;;;;;;;;;;;;;;;-2.98;49.85;91216.16;6350320;22;19914;-95
2021/12/10 03:18:52;;;;;;;;;;;;;;;-3.00;50.80;91213.81;6348233;22;19997;-95
2021/12/10 03:21:47;;;;;;;;;;;;;;;-3.00;50.54;91207.91;6351011;22;19910;-95
2021/12/10 03:24:26;;;;;;;;;;;;;;;-3.01;50.67;91211.50;6346982;22;19942;-94
2021/12/10 03:27:03;;;;;;;;;;;;;;;-3.01;51.97;91201.25;6345994;22;19933;-96
2021/12/10 03:29:39;;;;;;;;;;;;;;;-3.02;51.64;91204.81;6346040;22;19898;-95
2021/12/10 03:32:33;;;;;;;;;;;;;;;;;;;;;
2021/12/10 03:35:25;;;;;;;;;;;;;;;-3.00;49.45;91210.47;6346318;22;19916;-95
2021/12/10 03:41:11;;;;;;;;;;;;;;;-2.95;49.86;91210.53;6345637;22;19910;-95
2021/12/10 03:44:16;;;;;;;;;;;;;;;-2.94;49.81;91212.88;6369372;22;19955;-94
2021/12/10 03:46:51;;;;;;;;;;;;;;;-2.91;51.05;91221.09;6318653;22;19985;-95
2021/12/10 03:49:40;;;;;;;;;;;;;;;-2.90;51.02;91217.53;6318688;22;19909;-94
2021/12/10 03:55:39;;;;;;;;;;;;;;;-2.87;53.00;91215.28;6328067;22;19917;-95
2021/12/10 03:58:42;;;;;;;;;;;;;;;;;;;;;
2021/12/10 04:01:44;;;;;;;;;;;;;;;-2.89;53.45;91232.66;6372025;22;19916;-95
2021/12/10 04:04:46;;;;;;;;;;;;;;;-2.88;53.54;91246.22;6320805;22;20325;-96
2021/12/10 04:07:28;;;;;;;;;;;;;;;-2.88;53.61;91247.03;6345967;22;19910;-95
2021/12/10 04:10:30;;;;;;;;;;;;;;;;;;;;;
2021/12/10 04:13:06;;;;;;;;;;;;;;;-2.85;53.45;91264.47;6345365;22;19914;-94
2021/12/10 04:16:05;;;;;;;;;;;;;;;;;;;;;
2021/12/10 04:18:40;;;;;;;;;;;;;;;-2.81;52.83;91257.88;6345383;22;19945;-95
2021/12/10 04:21:40;;;;;;;;;;;;;;;-2.83;52.85;91264.25;6323026;22;19914;-95
2021/12/10 04:24:19;;;;;;;;;;;;;;;-2.84;52.36;91250.66;6319833;22;19945;-96
2021/12/10 04:26:59;;;;;;;;;;;;;;;-2.80;52.10;91256.09;6319901;22;20385;-95
2021/12/10 04:29:55;;;;;;;;;;;;;;;-2.78;52.88;91254.06;6348652;22;19966;-96
2021/12/10 04:32:48;;;;;;;;;;;;;;;-2.80;52.98;91248.41;6311844;22;19993;-95
2021/12/10 04:35:42;;;;;;;;;;;;;;;;;;;;;
2021/12/10 04:38:23;;;;;;;;;;;;;;;-2.81;52.71;91247.63;6322226;22;19918;-94
2021/12/10 04:41:49;;;;;;;;;;;;;;;-2.78;53.37;91243.81;6349323;22;19997;-94
2021/12/10 04:44:35;;;;;;;;;;;;;;;-2.77;54.19;91245.38;6372624;22;19922;-93
2021/12/10 04:51:06;;;;;;;;;;;;;;;-2.70;52.94;91228.06;6368465;22;19941;-94
2021/12/10 04:57:18;;;;;;;;;;;;;;;-2.64;52.43;91213.53;6367406;22;19984;-93
2021/12/10 05:00:33;;;;;;;;;;;;;;;;;;;;;
2021/12/10 05:03:48;;;;;;;;;;;;;;;-2.62;52.72;91199.47;6373948;22;19956;-93
2021/12/10 05:06:36;;;;;;;;;;;;;;;-2.59;54.29;91203.31;6371494;22;20001;-93
2021/12/10 05:09:27;;;;;;;;;;;;;;;-2.62;54.82;91199.47;6321135;22;19921;-94
2021/12/10 05:12:48;;;;;;;;;;;;;;;-2.64;55.33;91190.47;6334708;22;19910;-95
2021/12/10 05:16:04;;;;;;;;;;;;;;;;;;;;;
2021/12/10 05:19:51;;;;;;;;;;;;;;;;;;;;;
2021/12/10 05:22:31;;;;;;;;;;;;;;;;;;;;;
2021/12/10 05:25:15;;;;;;;;;;;;;;;;;;;;;
2021/12/10 05:27:44;;;;;;;;;;;;;;;-2.52;51.99;91186.00;6344344;22;19910;-92
2021/12/10 05:30:27;;;;;;;;;;;;;;;-2.52;52.18;91189.34;6324683;22;19954;-95
2021/12/10 05:33:28;;;;;;;;;;;;;;;-2.48;52.36;91187.06;6346852;22;19973;-94
2021/12/10 05:36:25;;;;;;;;;;;;;;;;;;;;;
2021/12/10 05:39:06;;;;;;;;;;;;;;;-2.43;50.76;91187.16;6371253;22;20266;-94
2021/12/10 05:42:04;;;;;;;;;;;;;;;-2.40;51.16;91178.19;6351494;22;19926;-92
2021/12/10 05:44:53;;;;;;;;;;;;;;;-2.39;51.79;91188.19;6339250;22;19914;-93
2021/12/10 05:47:37;;;;;;;;;;;;;;;-2.38;52.14;91187.19;6346752;22;19921;-93
2021/12/10 05:50:25;;;;;;;;;;;;;;;-2.35;52.40;91189.28;6319492;22;19935;-93
2021/12/10 05:53:01;;;;;;;;;;;;;;;-2.32;53.04;91186.25;6345858;22;19962;-94
2021/12/10 05:55:48;;;;;;;;;;;;;;;-2.31;53.06;91174.97;6348616;22;19985;-93
2021/12/10 05:58:29;;;;;;;;;;;;;;;-2.28;53.16;91175.50;6348884;22;19992;-94
2021/12/10 06:01:25;;;;;;;;;;;;;;;-2.26;53.37;91178.59;6344355;22;19917;-96
2021/12/10 06:04:32;;;;;;;;;;;;;;;;;;;;;
2021/12/10 06:07:26;;;;;;;;;;;;;;;;;;;;;
2021/12/10 06:10:33;;;;;;;;;;;;;;;;;;;;;
2021/12/10 06:13:12;;;;;;;;;;;;;;;-2.06;55.39;91165.22;6344757;22;19979;-92
2021/12/10 06:16:01;;;;;;;;;;;;;;;-2.04;52.90;91168.31;6321096;22;19925;-93
2021/12/10 06:18:47;;;;;;;;;;;;;;;-2.03;51.86;91164.72;6342704;22;19914;-93
2021/12/10 06:21:36;;;;;;;;;;;;;;;;;;;;;
2021/12/10 06:27:35;;;;;;;;;;;;;;;;;;;;;
2021/12/10 06:30:09;;;;;;;;;;;;;;;-2.04;53.66;91151.16;6346354;22;19967;-93
2021/12/10 06:33:19;;;;;;;;;;;;;;;-2.04;50.39;91148.56;6329564;22;19921;-93
2021/12/10 06:39:21;;;;;;;;;;;;;;;-2.00;50.10;91136.81;6253934;22;19943;-92
2021/12/10 06:42:02;;;;;;;;;;;;;;;-1.98;50.63;91134.78;6350035;22;19984;-92
2021/12/10 06:45:05;;;;;;;;;;;;;;;-1.98;52.46;91132.22;6347103;22;19910;-92
2021/12/10 06:48:08;;;;;;;;;;;;;;;;;;;;;
2021/12/10 06:50:52;;;;;;;;;;;;;;;;;;;;;
2021/12/10 07:11:55;;;;;;;;;;;;;;;-1.86;54.71;91096.16;6217262;23;19971;-93
2021/12/10 07:15:10;;;;;;;;;;;;;;;;;;;;;
2021/12/10 07:18:26;;;;;;;;;;;;;;;;;;;;;
2021/12/10 07:21:33;;;;;;;;;;;;;;;;;;;;;
2021/12/10 07:28:20;;;;;;;;;;;;;;;;;;;;;
2021/12/10 07:45:25;;;;;;;;;;;;;;;-1.62;51.27;91094.03;6031847;23;19947;-95
2021/12/10 07:55:55;;;;;;;;;;;;;;;;;;;;;
2021/12/10 08:06:48;;;;;;;;;;;;;;;;;;;;;
2021/12/10 08:10:38;;;;;;;;;;;;;;;;;;;;;
2021/12/10 08:21:22;;;;;;;;;;;;;;;;;;;;;
2021/12/10 08:25:23;;;;;;;;;;;;;;;-1.06;49.00;91094.38;6061436;23;19925;-94
2021/12/10 08:56:22;;;;;;;;;;;;;;;;;;;;;
2021/12/10 09:03:13;;;;;;;;;;;;;;;;;;;;;
2021/12/10 09:07:05;;;;;;;;;;;;;;;;;;;;;
2021/12/10 09:16:40;;;;;;;;;;;;;;;;;;;;;
2021/12/10 09:31:24;;;;;;;;;;;;;;;-0.08;56.23;91105.00;6141731;23;20017;-93
2021/12/10 09:34:38;;;;;;;;;;;;;;;;;;;;;
2021/12/10 09:45:15;;;;;;;;;;;;;;;;;;;;;
2021/12/10 09:48:39;;;;;;;;;;;;;;;;;;;;;
2021/12/10 09:59:23;;;;;;;;;;;;;;;;;;;;;
2021/12/10 10:09:49;;;;;;;;;;;;;;;;;;;;;
2021/12/10 10:12:36;;;;;;;;;;;;;;;-0.53;48.60;91093.56;6260805;22;19914;-79
2021/12/10 10:15:04;;;;;;;;;;;;;;;-0.60;48.49;91087.88;6404644;22;19949;-78
2021/12/10 10:17:30;;;;;;;;;;;;;;;-0.58;47.21;91088.41;6352628;22;19910;-80
2021/12/10 10:19:56;;;;;;;;;;;;;;;-0.51;49.03;91086.38;6413548;22;20213;-79
2021/12/10 10:22:24;;;;;;;;;;;;;;;-0.43;49.10;91086.66;6412737;22;19902;-79
2021/12/10 10:24:49;;;;;;;;;;;;;;;-0.37;54.99;91079.72;6379573;22;19913;-78
2021/12/10 10:27:19;;;;;;;;;;;;;;;-0.23;54.30;91078.19;6406044;22;19933;-79
2021/12/10 10:29:47;;;;;;;;;;;;;;;0.00;53.51;91076.19;6352522;22;19905;-80
2021/12/10 10:32:14;;;;;;;;;;;;;;;0.13;56.27;91064.59;6353605;22;19908;-79
2021/12/10 10:34:51;;;;;;;;;;;;;;;0.03;57.11;91056.91;6381099;22;20229;-78
2021/12/10 10:37:17;;;;;;;;;;;;;;;0.10;57.21;91055.59;6377552;22;19912;-79
2021/12/10 10:39:43;;;;;;;;;;;;;;;0.15;56.46;91047.88;6376298;22;19909;-79
2021/12/10 10:42:12;;;;;;;;;;;;;;;0.26;57.95;91035.78;6377432;22;19937;-79
2021/12/10 10:44:38;;;;;;;;;;;;;;;0.24;57.43;91029.34;6404365;22;19901;-79
2021/12/10 10:47:04;;;;;;;;;;;;;;;0.32;59.49;91027.03;6405460;22;19906;-79
2021/12/10 10:49:33;;;;;;;;;;;;;;;0.31;58.55;91019.56;6405041;22;19967;-78
2021/12/10 10:52:10;;;;;;;;;;;;;;;0.39;59.43;91001.03;6377444;22;20267;-79
2021/12/10 10:54:36;;;;;;;;;;;;;;;0.33;59.71;90995.09;6405821;22;19905;-79
2021/12/10 10:57:10;;;;;;;;;;;;;;;0.25;60.35;90987.94;6376543;22;19901;-78
2021/12/10 10:59:35;;;;;;;;;;;;;;;0.42;61.25;90982.47;6376255;22;20321;-79
2021/12/10 11:02:07;;;;;;;;;;;;;;;0.24;62.88;90973.50;6376883;22;19902;-78
2021/12/10 11:04:38;;;;;;;;;;;;;;;0.10;63.56;90970.69;6377813;22;19913;-79
2021/12/10 11:07:08;;;;;;;;;;;;;;;0.31;62.75;90958.56;6408209;22;19913;-79
2021/12/10 11:09:35;;;;;;;;;;;;;;;0.09;62.48;90953.72;6382848;22;19926;-79
2021/12/10 11:12:05;;;;;;;;;;;;;;;0.22;63.43;90943.91;6409844;22;19949;-80
2021/12/10 11:14:33;;;;;;;;;;;;;;;0.21;63.56;90938.00;6409231;22;19906;-79
2021/12/10 11:17:09;;;;;;;;;;;;;;;0.36;62.80;90937.19;6377909;22;19905;-79
2021/12/10 11:19:35;;;;;;;;;;;;;;;0.90;62.26;90933.13;6405593;22;19910;-79
2021/12/10 11:22:03;;;;;;;;;;;;;;;1.17;60.84;90933.53;6352959;22;19908;-80
2021/12/10 11:24:35;;;;;;;;;;;;;;;1.06;60.20;90926.09;6407929;22;19906;-79
2021/12/10 11:27:03;;;;;;;;;;;;;;;1.15;60.52;90924.50;6354883;22;19913;-79
2021/12/10 11:29:50;;;;;;;;;;;;;;;1.36;60.67;90922.59;6382147;22;20290;-77
2021/12/10 11:32:18;;;;;;;;;;;;;;;0.79;61.13;90916.97;6353860;22;19958;-80
2021/12/10 11:34:46;;;;;;;;;;;;;;;0.71;62.46;90923.44;6382325;22;19965;-80
2021/12/10 11:37:15;;;;;;;;;;;;;;;0.65;62.86;90913.41;6411971;22;19974;-80
2021/12/10 11:39:43;;;;;;;;;;;;;;;0.54;62.67;90916.03;6356284;22;19902;-80
2021/12/10 11:42:31;;;;;;;;;;;;;;;0.55;62.41;90912.41;6383175;22;20091;-80
2021/12/10 11:45:28;;;;;;;;;;;;;;;0.35;63.80;90902.94;6415143;22;19914;-79
2021/12/10 11:48:04;;;;;;;;;;;;;;;0.23;63.85;90901.72;6411291;22;19910;-79
2021/12/10 11:50:39;;;;;;;;;;;;;;;0.43;63.86;90898.28;6410530;22;19906;-80
2021/12/10 11:53:16;;;;;;;;;;;;;;;0.55;63.20;90894.38;6357901;22;19906;-79
2021/12/10 11:56:14;;;;;;;;;;;;;;;0.61;63.72;90895.16;6412447;22;19916;-79
2021/12/10 11:58:40;;;;;;;;;;;;;;;0.67;62.97;90903.63;6305406;22;19949;-79
2021/12/10 12:01:13;;;;;;;;;;;;;;;0.68;63.13;90898.22;6382661;22;19902;-80
2021/12/10 12:03:39;;;;;;;;;;;;;;;0.64;63.79;90893.84;6410981;22;19912;-80
2021/12/10 12:06:04;;;;;;;;;;;;;;;0.35;64.51;90902.19;6381749;22;19913;-79
2021/12/10 12:08:31;;;;;;;;;;;;;;;0.25;64.81;90892.69;6354680;22;19984;-80
2021/12/10 12:11:00;;;;;;;;;;;;;;;0.14;65.27;90891.94;6410931;22;19910;-79
2021/12/10 12:13:33;;;;;;;;;;;;;;;-0.18;67.69;90891.47;6409113;22;19950;-80
2021/12/10 12:16:01;;;;;;;;;;;;;;;-0.13;68.09;90888.94;6411478;22;19934;-79
2021/12/10 12:18:31;;;;;;;;;;;;;;;-0.13;67.51;90886.34;6411589;22;19984;-79
2021/12/10 12:20:58;;;;;;;;;;;;;;;-0.16;68.10;90892.00;6382599;22;19906;-80
2021/12/10 12:26:16;;;;;;;;;;;;;;;-0.11;68.56;90874.78;6410806;22;20343;-78
2021/12/10 12:28:44;;;;;;;;;;;;;;;-0.03;67.93;90878.59;6380238;22;19941;-78
2021/12/10 12:31:20;;;;;;;;;;;;;;;0.09;68.13;90876.53;6352988;22;19977;-77
2021/12/10 12:33:49;;;;;;;;;;;;;;;0.16;67.61;90876.25;6378810;22;19909;-78
2021/12/10 12:36:16;;;;;;;;;;;;;;;0.20;66.84;90870.31;6407756;22;19902;-78
2021/12/10 12:38:45;;;;;;;;;;;;;;;0.22;66.65;90870.03;6378920;22;19976;-78
2021/12/10 12:41:11;;;;;;;;;;;;;;;0.22;66.30;90871.84;6410574;22;19906;-78
2021/12/10 12:43:37;;;;;;;;;;;;;;;0.20;66.83;90870.31;6379779;22;19976;-78
2021/12/10 12:46:04;;;;;;;;;;;;;;;0.19;66.12;90865.44;6379196;22;19935;-78
2021/12/10 12:48:30;;;;;;;;;;;;;;;0.19;65.09;90871.34;6379996;22;19928;-76
2021/12/10 12:51:01;;;;;;;;;;;;;;;0.25;64.81;90866.16;6351573;22;19958;-78
2021/12/10 12:53:30;;;;;;;;;;;;;;;-0.02;65.63;90867.28;6376920;22;20384;-78
2021/12/10 12:55:55;;;;;;;;;;;;;;;0.09;65.06;90868.81;6401979;22;19917;-77
2021/12/10 12:58:27;;;;;;;;;;;;;;;0.06;65.39;90861.59;6378142;22;20127;-77
2021/12/10 13:00:58;;;;;;;;;;;;;;;0.07;64.90;90870.88;6377816;22;19981;-78
2021/12/10 13:03:43;;;;;;;;;;;;;;;0.10;65.01;90857.47;6407416;22;19933;-78
2021/12/10 13:06:13;;;;;;;;;;;;;;;0.09;65.08;90868.00;6379525;22;20332;-79
2021/12/10 13:08:41;;;;;;;;;;;;;;;0.04;64.79;90861.09;6378918;22;19986;-78
2021/12/10 13:11:07;;;;;;;;;;;;;;;0.04;65.11;90861.09;6381334;22;19941;-79
2021/12/10 13:13:41;;;;;;;;;;;;;;;0.04;65.40;90861.09;6408826;22;19963;-77
2021/12/10 13:16:09;;;;;;;;;;;;;;;0.04;65.10;90852.59;6409367;22;19912;-79
2021/12/10 13:18:37;;;;;;;;;;;;;;;0.10;65.74;90854.13;6410911;22;19947;-79
2021/12/10 13:21:03;;;;;;;;;;;;;;;0.09;65.10;90857.72;6409237;22;19929;-79
2021/12/10 13:23:29;;;;;;;;;;;;;;;0.13;64.88;90851.03;6407807;22;19935;-79
2021/12/10 13:25:57;;;;;;;;;;;;;;;0.13;65.11;90856.94;6412830;22;19949;-79
2021/12/10 13:28:22;;;;;;;;;;;;;;;0.11;64.85;90855.66;6412221;22;19930;-79
2021/12/10 13:30:50;;;;;;;;;;;;;;;0.09;68.81;90855.94;6383753;22;19905;-79
2021/12/10 13:33:19;;;;;;;;;;;;;;;-0.01;69.29;90848.25;6411273;22;20336;-79
2021/12/10 13:35:44;;;;;;;;;;;;;;;0.04;69.47;90850.78;6383180;22;19902;-79
2021/12/10 13:38:10;;;;;;;;;;;;;;;0.07;68.80;90845.16;6380823;22;19999;-79
2021/12/10 13:40:37;;;;;;;;;;;;;;;0.05;69.39;90843.88;6379488;22;20309;-78
2021/12/10 13:43:04;;;;;;;;;;;;;;;0.09;68.96;90847.44;6382559;22;19957;-79
2021/12/10 13:45:31;;;;;;;;;;;;;;;0.05;69.56;90857.50;6382699;22;19910;-79
2021/12/10 13:48:08;;;;;;;;;;;;;;;-0.06;70.12;90856.75;6409331;22;19906;-79
2021/12/10 13:50:36;;;;;;;;;;;;;;;-0.06;68.42;90855.97;6408906;22;20286;-79
2021/12/10 13:53:04;;;;;;;;;;;;;;;-0.14;68.12;90848.78;6411947;22;19988;-79
2021/12/10 13:55:29;;;;;;;;;;;;;;;-0.18;69.40;90852.91;6410069;22;19906;-79
2021/12/10 13:58:13;;;;;;;;;;;;;;;-0.25;70.49;90842.88;6410364;22;19942;-79
2021/12/10 14:00:42;;;;;;;;;;;;;;;-0.33;72.23;90851.91;6409146;22;19951;-77
2021/12/10 14:03:08;;;;;;;;;;;;;;;-0.43;71.98;90846.75;6379652;22;19928;-79
2021/12/10 14:05:36;;;;;;;;;;;;;;;-0.40;71.37;90841.13;6408989;22;19914;-78
2021/12/10 14:08:15;;;;;;;;;;;;;;;-0.43;71.37;90846.75;6381950;22;19902;-79
2021/12/10 14:10:46;;;;;;;;;;;;;;;-0.48;71.44;90846.78;6409894;22;19906;-79
2021/12/10 14:13:27;;;;;;;;;;;;;;;-0.52;70.87;90838.03;6334745;22;19922;-79
2021/12/10 14:16:03;;;;;;;;;;;;;;;-0.58;71.18;90839.09;6218820;23;19908;-79
2021/12/10 14:18:30;;;;;;;;;;;;;;;-0.51;70.99;90844.72;6298576;22;20357;-78
2021/12/10 14:21:00;;;;;;;;;;;;;;;-0.43;72.01;90839.84;6321273;22;19908;-79
2021/12/10 14:23:26;;;;;;;;;;;;;;;-0.41;71.14;90847.28;6295666;22;19919;-79
2021/12/10 14:25:55;;;;;;;;;;;;;;;-0.46;69.79;90844.72;6321479;22;19908;-79
2021/12/10 14:28:35;;;;;;;;;;;;;;;-0.52;69.91;90840.59;6322369;22;19934;-80
2021/12/10 14:31:02;;;;;;;;;;;;;;;-0.60;71.33;90851.44;6320484;22;19908;-80
2021/12/10 14:33:36;;;;;;;;;;;;;;;-0.59;69.36;90853.72;6218780;23;19939;-80
2021/12/10 14:36:09;;;;;;;;;;;;;;;-0.70;70.31;90852.97;6216026;23;19939;-80
2021/12/10 14:38:35;;;;;;;;;;;;;;;-0.77;69.85;90855.00;6218940;23;20287;-80
2021/12/10 14:41:20;;;;;;;;;;;;;;;-0.83;70.82;90858.63;6217510;23;20158;-81
2021/12/10 14:43:52;;;;;;;;;;;;;;;-0.82;69.89;90857.59;6323037;22;19956;-80
2021/12/10 14:46:35;;;;;;;;;;;;;;;-0.90;70.73;90858.88;6324478;22;19911;-78
2021/12/10 14:49:08;;;;;;;;;;;;;;;-0.87;70.97;90857.59;6322625;22;19911;-80
2021/12/10 14:51:34;;;;;;;;;;;;;;;-0.84;70.38;90854.50;6317889;22;19939;-79
2021/12/10 14:54:15;;;;;;;;;;;;;;;-0.81;69.78;90846.28;6214880;23;20356;-78
2021/12/10 14:56:47;;;;;;;;;;;;;;;-0.77;69.91;90843.97;6329110;22;19908;-81
2021/12/10 14:59:22;;;;;;;;;;;;;;;-0.75;70.32;90840.09;6327138;22;19908;-83
2021/12/10 15:02:00;;;;;;;;;;;;;;;-0.70;70.81;90842.69;6328375;22;19908;-82
2021/12/10 15:04:38;;;;;;;;;;;;;;;-0.72;70.73;90844.75;6329647;22;20263;-82
2021/12/10 15:07:10;;;;;;;;;;;;;;;-0.75;70.46;90840.09;6331120;22;19961;-82
2021/12/10 15:09:54;;;;;;;;;;;;;;;-0.75;71.09;90840.09;6219892;23;19907;-80
2021/12/10 15:12:19;;;;;;;;;;;;;;;-0.79;70.34;90857.06;6299298;22;19912;-79
2021/12/10 15:14:53;;;;;;;;;;;;;;;-0.86;69.61;90852.19;6347327;22;19912;-79
2021/12/10 15:17:18;;;;;;;;;;;;;;;-0.86;70.96;90859.91;6347170;22;19908;-79
2021/12/10 15:19:46;;;;;;;;;;;;;;;-0.89;70.17;90862.97;6348799;22;20344;-79
2021/12/10 15:22:13;;;;;;;;;;;;;;;-0.98;70.96;90859.38;6344250;22;19942;-79
2021/12/10 15:24:50;;;;;;;;;;;;;;;-0.97;71.31;90868.59;6345107;22;19911;-78
2021/12/10 15:27:30;;;;;;;;;;;;;;;-1.02;71.38;90865.28;6289344;22;19912;-77
2021/12/10 15:30:11;;;;;;;;;;;;;;;-1.10;71.65;90869.88;6208972;23;20017;-78
2021/12/10 15:32:48;;;;;;;;;;;;;;;-1.14;71.93;90876.56;6290827;22;19915;-78
2021/12/10 15:35:19;;;;;;;;;;;;;;;-1.22;72.66;90882.19;6340370;22;19983;-76
2021/12/10 15:37:56;;;;;;;;;;;;;;;-1.27;73.51;90877.03;6339295;22;19908;-77
2021/12/10 15:40:30;;;;;;;;;;;;;;;-1.34;73.62;90879.06;6287852;22;19951;-77
2021/12/10 15:42:57;;;;;;;;;;;;;;;-1.38;73.47;90873.66;6343127;22;19908;-77
2021/12/10 15:45:24;;;;;;;;;;;;;;;-1.40;73.09;90877.50;6209346;23;19912;-77
2021/12/10 15:47:51;;;;;;;;;;;;;;;-1.45;73.07;90873.13;6340895;22;20326;-79
2021/12/10 15:50:20;;;;;;;;;;;;;;;-1.51;73.58;90882.63;6290147;22;19908;-77
2021/12/10 15:52:53;;;;;;;;;;;;;;;-1.59;74.01;90885.66;6314790;22;19923;-77
2021/12/10 15:55:19;;;;;;;;;;;;;;;-1.65;74.30;90876.41;6342820;22;19948;-77
2021/12/10 15:57:46;;;;;;;;;;;;;;;-1.67;74.75;90878.44;6315463;22;19911;-77
2021/12/10 16:00:18;;;;;;;;;;;;;;;-1.69;74.45;90876.16;6211673;23;19915;-77
2021/12/10 16:02:44;;;;;;;;;;;;;;;-1.76;74.55;90878.16;6343819;22;19912;-77
2021/12/10 16:05:11;;;;;;;;;;;;;;;-1.82;74.84;90886.06;6213031;23;19912;-76
2021/12/10 16:07:42;;;;;;;;;;;;;;;-1.85;74.99;90882.22;6225747;23;19914;-79
2021/12/10 16:10:10;;;;;;;;;;;;;;;-1.90;74.72;90887.34;6319467;22;19987;-78
2021/12/10 16:12:36;;;;;;;;;;;;;;;-1.94;74.60;90881.91;6280654;22;20274;-76
2021/12/10 16:15:07;;;;;;;;;;;;;;;-2.00;74.95;90879.59;6370823;22;20253;-78
2021/12/10 16:17:33;;;;;;;;;;;;;;;-2.04;74.87;90881.88;6374658;22;19939;-77
2021/12/10 16:20:00;;;;;;;;;;;;;;;-2.06;74.79;90885.72;6371899;22;20279;-76
2021/12/10 16:22:27;;;;;;;;;;;;;;;-2.12;74.72;90885.69;6401657;22;19938;-81
2021/12/10 16:24:56;;;;;;;;;;;;;;;-2.14;74.72;90889.50;6399352;22;19992;-77
2021/12/10 16:27:24;;;;;;;;;;;;;;;-2.18;74.49;90896.94;6400816;22;19909;-77
2021/12/10 16:29:51;;;;;;;;;;;;;;;-2.21;73.94;90894.09;6402163;22;19910;-77
2021/12/10 16:32:22;;;;;;;;;;;;;;;-2.24;73.91;90892.78;6403598;22;19902;-78
2021/12/10 16:34:50;;;;;;;;;;;;;;;-2.28;73.91;90901.22;6350639;22;19927;-79
2021/12/10 16:37:16;;;;;;;;;;;;;;;-2.29;74.07;90904.81;6403110;22;19902;-78
2021/12/10 16:39:47;;;;;;;;;;;;;;;-2.34;73.77;90897.88;6403016;22;19906;-78
2021/12/10 16:42:13;;;;;;;;;;;;;;;-2.36;73.55;90900.66;6403779;22;19905;-78
2021/12/10 16:44:39;;;;;;;;;;;;;;;-2.39;73.96;90906.25;6375723;22;19906;-79
2021/12/10 16:47:09;;;;;;;;;;;;;;;-2.41;73.80;90907.53;6375305;22;20252;-78
2021/12/10 16:49:35;;;;;;;;;;;;;;;-2.41;73.88;90915.22;6373605;22;19913;-78
2021/12/10 16:52:06;;;;;;;;;;;;;;;-2.41;73.97;90920.34;6347919;22;20279;-79
2021/12/10 16:54:36;;;;;;;;;;;;;;;-2.42;73.96;90924.72;6403151;22;19998;-79
2021/12/10 16:57:21;;;;;;;;;;;;;;;-2.43;73.69;90930.88;6404759;22;20339;-78
2021/12/10 16:59:49;;;;;;;;;;;;;;;-2.42;74.37;90922.16;6377117;22;19906;-79
2021/12/10 17:02:19;;;;;;;;;;;;;;;-2.42;74.75;90931.63;6349953;22;19902;-79
2021/12/10 17:04:56;;;;;;;;;;;;;;;-2.44;74.55;90936.22;6375943;22;19905;-79
2021/12/10 17:07:31;;;;;;;;;;;;;;;-2.47;73.96;90937.50;6404962;22;20337;-79
2021/12/10 17:10:03;;;;;;;;;;;;;;;-2.48;74.63;90941.06;6403472;22;19921;-79
2021/12/10 17:12:29;;;;;;;;;;;;;;;-2.49;74.69;90949.78;6401864;22;19985;-78
2021/12/10 17:14:57;;;;;;;;;;;;;;;-2.49;74.58;90949.78;6402644;22;19910;-80
2021/12/10 17:17:26;;;;;;;;;;;;;;;-2.51;75.17;90949.25;6373853;22;19905;-79
2021/12/10 17:20:03;;;;;;;;;;;;;;;-2.51;75.56;90951.81;6346575;22;19902;-79
2021/12/10 17:22:31;;;;;;;;;;;;;;;-2.49;76.17;90946.44;6402563;22;19913;-79
2021/12/10 17:25:03;;;;;;;;;;;;;;;-2.48;76.21;90948.75;6372775;22;19906;-78
2021/12/10 17:27:31;;;;;;;;;;;;;;;-2.49;76.76;90952.34;6401506;22;19910;-81
2021/12/10 17:30:10;;;;;;;;;;;;;;;-2.54;75.89;90954.88;6375150;22;19902;-80
2021/12/10 17:32:36;;;;;;;;;;;;;;;-2.56;75.98;90959.47;6400675;22;19959;-76
2021/12/10 17:35:09;;;;;;;;;;;;;;;-2.60;75.75;90960.94;6373393;22;19910;-78
2021/12/10 17:37:36;;;;;;;;;;;;;;;-2.65;75.93;90963.47;6373175;22;19913;-80
2021/12/10 17:40:05;;;;;;;;;;;;;;;-2.69;75.86;90960.63;6371312;22;19906;-79
2021/12/10 17:42:32;;;;;;;;;;;;;;;-2.74;75.59;90969.03;6400184;22;19910;-79
2021/12/10 17:44:59;;;;;;;;;;;;;;;-2.77;75.87;90966.97;6401383;22;19906;-78
2021/12/10 17:47:32;;;;;;;;;;;;;;;-2.80;75.58;90964.09;6347518;22;20238;-81
2021/12/10 17:50:00;;;;;;;;;;;;;;;-2.85;75.35;90972.50;6373200;22;20364;-78
2021/12/10 17:52:29;;;;;;;;;;;;;;;-2.87;75.33;90976.34;6373028;22;19905;-77
2021/12/10 17:54:55;;;;;;;;;;;;;;;-2.88;75.87;90978.13;6370353;22;19959;-77
2021/12/10 17:57:27;;;;;;;;;;;;;;;-2.88;75.73;90975.56;6373034;22;19902;-78
2021/12/10 17:59:53;;;;;;;;;;;;;;;-2.84;76.19;90976.59;6402310;22;19992;-77
2021/12/10 18:02:22;;;;;;;;;;;;;;;-2.87;75.92;90977.09;6372759;22;19908;-78
2021/12/10 18:04:50;;;;;;;;;;;;;;;-2.93;75.91;90978.06;6399847;22;20225;-76
2021/12/10 18:07:16;;;;;;;;;;;;;;;-2.93;76.51;90978.06;6343401;22;20056;-76
2021/12/10 18:09:44;;;;;;;;;;;;;;;-2.92;75.96;90973.72;6369644;22;19933;-76